sensor_id;sensor_type;location;lat;lon;timestamp;temperature;humidity
68480;DHT22;55469;48.934;12.050;2023-06-10T00:01:42;22.50;55.60
68480;DHT22;55469;48.934;12.050;2023-06-10T00:04:14;22.50;55.70
68480;DHT22;55469;48.934;12.050;2023-06-10T00:06:43;22.50;55.90
68480;DHT22;55469;48.934;12.050;2023-06-10T00:09:09;22.50;55.80
68480;DHT22;55469;48.934;12.050;2023-06-10T00:11:36;22.50;56.60
68480;DHT22;55469;48.934;12.050;2023-06-10T00:14:02;22.50;55.70
68480;DHT22;55469;48.934;12.050;2023-06-10T00:16:29;22.50;55.50
68480;DHT22;55469;48.934;12.050;2023-06-10T00:18:55;22.50;55.70
68480;DHT22;55469;48.934;12.050;2023-06-10T00:21:25;22.40;55.90
68480;DHT22;55469;48.934;12.050;2023-06-10T00:23:52;22.40;56.30
68480;DHT22;55469;48.934;12.050;2023-06-10T00:26:18;22.30;56.00
68480;DHT22;55469;48.934;12.050;2023-06-10T00:28:43;22.40;56.00
68480;DHT22;55469;48.934;12.050;2023-06-10T00:31:10;22.40;55.90
68480;DHT22;55469;48.934;12.050;2023-06-10T00:33:36;22.30;55.80
68480;DHT22;55469;48.934;12.050;2023-06-10T00:36:02;22.20;56.30
68480;DHT22;55469;48.934;12.050;2023-06-10T00:38:27;22.10;56.40
68480;DHT22;55469;48.934;12.050;2023-06-10T00:40:54;22.00;56.70
68480;DHT22;55469;48.934;12.050;2023-06-10T00:43:20;22.10;56.80
68480;DHT22;55469;48.934;12.050;2023-06-10T00:45:45;22.00;56.60
68480;DHT22;55469;48.934;12.050;2023-06-10T00:48:11;22.10;56.80
68480;DHT22;55469;48.934;12.050;2023-06-10T00:50:37;22.00;56.90
68480;DHT22;55469;48.934;12.050;2023-06-10T00:53:05;22.00;57.00
68480;DHT22;55469;48.934;12.050;2023-06-10T00:55:32;22.00;56.70
68480;DHT22;55469;48.934;12.050;2023-06-10T00:57:58;22.10;56.60
68480;DHT22;55469;48.934;12.050;2023-06-10T01:00:25;22.10;57.70
68480;DHT22;55469;48.934;12.050;2023-06-10T01:02:51;22.10;57.60
68480;DHT22;55469;48.934;12.050;2023-06-10T01:05:17;22.10;56.50
68480;DHT22;55469;48.934;12.050;2023-06-10T01:10:49;21.80;57.40
68480;DHT22;55469;48.934;12.050;2023-06-10T01:13:17;21.80;57.40
68480;DHT22;55469;48.934;12.050;2023-06-10T01:15:44;21.80;57.30
68480;DHT22;55469;48.934;12.050;2023-06-10T01:18:10;21.70;57.60
68480;DHT22;55469;48.934;12.050;2023-06-10T01:20:40;21.70;57.80
68480;DHT22;55469;48.934;12.050;2023-06-10T01:23:09;21.60;57.80
68480;DHT22;55469;48.934;12.050;2023-06-10T01:25:41;21.70;57.90
68480;DHT22;55469;48.934;12.050;2023-06-10T01:28:38;21.70;57.90
68480;DHT22;55469;48.934;12.050;2023-06-10T01:31:17;21.60;57.80
68480;DHT22;55469;48.934;12.050;2023-06-10T01:33:50;21.80;57.70
68480;DHT22;55469;48.934;12.050;2023-06-10T01:36:18;21.70;57.80
68480;DHT22;55469;48.934;12.050;2023-06-10T01:38:46;21.80;57.50
68480;DHT22;55469;48.934;12.050;2023-06-10T01:41:14;21.80;57.50
68480;DHT22;55469;48.934;12.050;2023-06-10T01:43:44;21.70;57.80
68480;DHT22;55469;48.934;12.050;2023-06-10T01:46:10;21.70;57.80
68480;DHT22;55469;48.934;12.050;2023-06-10T01:48:37;21.70;57.80
68480;DHT22;55469;48.934;12.050;2023-06-10T01:51:04;21.50;57.70
68480;DHT22;55469;48.934;12.050;2023-06-10T01:53:30;21.50;57.70
68480;DHT22;55469;48.934;12.050;2023-06-10T01:55:56;21.50;57.70
68480;DHT22;55469;48.934;12.050;2023-06-10T01:58:22;21.60;57.70
68480;DHT22;55469;48.934;12.050;2023-06-10T02:00:47;21.50;57.70
68480;DHT22;55469;48.934;12.050;2023-06-10T02:03:13;21.50;57.80
68480;DHT22;55469;48.934;12.050;2023-06-10T02:05:39;21.50;57.70
68480;DHT22;55469;48.934;12.050;2023-06-10T02:08:06;21.40;58.00
68480;DHT22;55469;48.934;12.050;2023-06-10T02:10:31;21.40;57.90
68480;DHT22;55469;48.934;12.050;2023-06-10T02:12:57;21.40;58.20
68480;DHT22;55469;48.934;12.050;2023-06-10T02:15:23;21.30;58.30
68480;DHT22;55469;48.934;12.050;2023-06-10T02:17:49;21.20;58.50
68480;DHT22;55469;48.934;12.050;2023-06-10T02:20:15;21.20;59.40
68480;DHT22;55469;48.934;12.050;2023-06-10T02:22:41;21.30;58.20
68480;DHT22;55469;48.934;12.050;2023-06-10T02:25:07;21.30;58.00
68480;DHT22;55469;48.934;12.050;2023-06-10T02:27:34;21.20;58.40
68480;DHT22;55469;48.934;12.050;2023-06-10T02:30:01;21.10;58.60
68480;DHT22;55469;48.934;12.050;2023-06-10T02:32:27;21.10;58.50
68480;DHT22;55469;48.934;12.050;2023-06-10T02:34:53;21.10;58.60
68480;DHT22;55469;48.934;12.050;2023-06-10T02:37:19;21.10;58.40
68480;DHT22;55469;48.934;12.050;2023-06-10T02:39:45;21.10;58.70
68480;DHT22;55469;48.934;12.050;2023-06-10T02:42:11;21.10;58.50
68480;DHT22;55469;48.934;12.050;2023-06-10T02:44:38;21.20;58.40
68480;DHT22;55469;48.934;12.050;2023-06-10T02:47:03;21.10;58.60
68480;DHT22;55469;48.934;12.050;2023-06-10T02:49:30;21.00;58.80
68480;DHT22;55469;48.934;12.050;2023-06-10T02:51:56;20.90;59.00
68480;DHT22;55469;48.934;12.050;2023-06-10T02:54:25;21.00;58.90
68480;DHT22;55469;48.934;12.050;2023-06-10T02:56:52;21.00;58.60
68480;DHT22;55469;48.934;12.050;2023-06-10T02:59:18;20.90;58.90
68480;DHT22;55469;48.934;12.050;2023-06-10T03:01:46;21.00;58.80
68480;DHT22;55469;48.934;12.050;2023-06-10T03:04:12;21.00;58.70
68480;DHT22;55469;48.934;12.050;2023-06-10T03:06:40;21.00;58.60
68480;DHT22;55469;48.934;12.050;2023-06-10T03:09:06;20.90;58.70
68480;DHT22;55469;48.934;12.050;2023-06-10T03:11:35;20.90;58.80
68480;DHT22;55469;48.934;12.050;2023-06-10T03:14:01;20.90;58.70
68480;DHT22;55469;48.934;12.050;2023-06-10T03:16:27;20.80;59.00
68480;DHT22;55469;48.934;12.050;2023-06-10T03:18:53;20.70;59.30
68480;DHT22;55469;48.934;12.050;2023-06-10T03:21:20;20.70;59.30
68480;DHT22;55469;48.934;12.050;2023-06-10T03:23:46;20.50;60.60
68480;DHT22;55469;48.934;12.050;2023-06-10T03:26:11;20.50;60.60
68480;DHT22;55469;48.934;12.050;2023-06-10T03:28:39;20.30;61.20
68480;DHT22;55469;48.934;12.050;2023-06-10T03:31:05;20.40;61.30
68480;DHT22;55469;48.934;12.050;2023-06-10T03:33:33;20.40;61.00
68480;DHT22;55469;48.934;12.050;2023-06-10T03:35:59;20.40;61.00
68480;DHT22;55469;48.934;12.050;2023-06-10T03:38:25;20.40;61.00
68480;DHT22;55469;48.934;12.050;2023-06-10T03:40:50;20.40;60.50
68480;DHT22;55469;48.934;12.050;2023-06-10T03:43:16;20.50;61.50
68480;DHT22;55469;48.934;12.050;2023-06-10T03:45:42;20.60;60.20
68480;DHT22;55469;48.934;12.050;2023-06-10T03:48:08;20.40;60.70
68480;DHT22;55469;48.934;12.050;2023-06-10T03:50:34;20.40;61.00
68480;DHT22;55469;48.934;12.050;2023-06-10T03:53:01;20.40;61.20
68480;DHT22;55469;48.934;12.050;2023-06-10T03:55:27;20.40;61.50
68480;DHT22;55469;48.934;12.050;2023-06-10T03:57:53;20.20;62.40
68480;DHT22;55469;48.934;12.050;2023-06-10T04:00:19;20.10;62.80
68480;DHT22;55469;48.934;12.050;2023-06-10T04:02:46;20.10;62.80
68480;DHT22;55469;48.934;12.050;2023-06-10T04:05:15;20.10;62.90
68480;DHT22;55469;48.934;12.050;2023-06-10T04:07:42;20.10;62.60
68480;DHT22;55469;48.934;12.050;2023-06-10T04:10:10;20.20;62.20
68480;DHT22;55469;48.934;12.050;2023-06-10T04:12:37;20.30;61.50
68480;DHT22;55469;48.934;12.050;2023-06-10T04:15:04;20.40;61.00
68480;DHT22;55469;48.934;12.050;2023-06-10T04:17:30;20.50;60.90
68480;DHT22;55469;48.934;12.050;2023-06-10T04:19:56;20.50;60.70
68480;DHT22;55469;48.934;12.050;2023-06-10T04:22:23;20.60;61.10
68480;DHT22;55469;48.934;12.050;2023-06-10T04:24:49;20.50;61.50
68480;DHT22;55469;48.934;12.050;2023-06-10T04:27:15;20.50;61.10
68480;DHT22;55469;48.934;12.050;2023-06-10T04:29:41;20.50;61.00
68480;DHT22;55469;48.934;12.050;2023-06-10T04:32:07;20.50;61.50
68480;DHT22;55469;48.934;12.050;2023-06-10T04:34:33;20.50;61.60
68480;DHT22;55469;48.934;12.050;2023-06-10T04:36:59;20.40;62.20
68480;DHT22;55469;48.934;12.050;2023-06-10T04:39:25;20.40;61.60
68480;DHT22;55469;48.934;12.050;2023-06-10T04:41:51;20.40;62.10
68480;DHT22;55469;48.934;12.050;2023-06-10T04:44:18;20.40;62.50
68480;DHT22;55469;48.934;12.050;2023-06-10T04:46:44;20.30;62.70
68480;DHT22;55469;48.934;12.050;2023-06-10T04:49:11;20.30;62.80
68480;DHT22;55469;48.934;12.050;2023-06-10T04:51:39;20.40;61.70
68480;DHT22;55469;48.934;12.050;2023-06-10T04:54:05;20.50;61.80
68480;DHT22;55469;48.934;12.050;2023-06-10T04:56:31;20.50;62.20
68480;DHT22;55469;48.934;12.050;2023-06-10T04:58:57;20.50;61.60
68480;DHT22;55469;48.934;12.050;2023-06-10T05:01:23;20.50;62.50
68480;DHT22;55469;48.934;12.050;2023-06-10T05:03:48;20.50;62.30
68480;DHT22;55469;48.934;12.050;2023-06-10T05:06:14;20.40;62.90
68480;DHT22;55469;48.934;12.050;2023-06-10T05:08:40;20.50;62.30
68480;DHT22;55469;48.934;12.050;2023-06-10T05:11:06;20.50;62.50
68480;DHT22;55469;48.934;12.050;2023-06-10T05:13:32;20.60;61.60
68480;DHT22;55469;48.934;12.050;2023-06-10T05:15:59;20.60;63.00
68480;DHT22;55469;48.934;12.050;2023-06-10T05:18:25;20.60;61.90
68480;DHT22;55469;48.934;12.050;2023-06-10T05:20:50;20.60;62.10
68480;DHT22;55469;48.934;12.050;2023-06-10T05:23:16;20.60;62.00
68480;DHT22;55469;48.934;12.050;2023-06-10T05:25:42;20.60;62.20
68480;DHT22;55469;48.934;12.050;2023-06-10T05:28:08;20.70;62.40
68480;DHT22;55469;48.934;12.050;2023-06-10T05:30:37;20.60;61.90
68480;DHT22;55469;48.934;12.050;2023-06-10T05:33:04;20.70;61.90
68480;DHT22;55469;48.934;12.050;2023-06-10T05:35:30;20.70;62.50
68480;DHT22;55469;48.934;12.050;2023-06-10T05:37:56;20.70;62.40
68480;DHT22;55469;48.934;12.050;2023-06-10T05:40:22;20.70;63.40
68480;DHT22;55469;48.934;12.050;2023-06-10T05:42:48;20.70;62.80
68480;DHT22;55469;48.934;12.050;2023-06-10T05:45:14;20.70;62.90
68480;DHT22;55469;48.934;12.050;2023-06-10T05:47:40;20.60;64.60
68480;DHT22;55469;48.934;12.050;2023-06-10T05:50:06;20.70;65.30
68480;DHT22;55469;48.934;12.050;2023-06-10T05:52:34;20.60;63.80
68480;DHT22;55469;48.934;12.050;2023-06-10T05:55:06;20.70;63.80
68480;DHT22;55469;48.934;12.050;2023-06-10T05:57:31;20.70;64.00
68480;DHT22;55469;48.934;12.050;2023-06-10T05:59:57;20.70;63.50
68480;DHT22;55469;48.934;12.050;2023-06-10T06:02:23;20.80;63.50
68480;DHT22;55469;48.934;12.050;2023-06-10T06:04:49;20.80;63.30
68480;DHT22;55469;48.934;12.050;2023-06-10T06:07:15;20.80;64.30
68480;DHT22;55469;48.934;12.050;2023-06-10T06:09:40;20.80;63.50
68480;DHT22;55469;48.934;12.050;2023-06-10T06:12:07;20.80;63.30
68480;DHT22;55469;48.934;12.050;2023-06-10T06:14:37;20.80;63.30
68480;DHT22;55469;48.934;12.050;2023-06-10T06:17:05;20.80;63.60
68480;DHT22;55469;48.934;12.050;2023-06-10T06:19:31;20.80;63.40
68480;DHT22;55469;48.934;12.050;2023-06-10T06:21:57;20.90;63.60
68480;DHT22;55469;48.934;12.050;2023-06-10T06:24:23;20.90;63.60
68480;DHT22;55469;48.934;12.050;2023-06-10T06:26:49;20.90;63.60
68480;DHT22;55469;48.934;12.050;2023-06-10T06:29:14;20.90;63.70
68480;DHT22;55469;48.934;12.050;2023-06-10T06:31:40;20.90;63.60
68480;DHT22;55469;48.934;12.050;2023-06-10T06:34:06;20.90;63.50
68480;DHT22;55469;48.934;12.050;2023-06-10T06:36:32;20.90;63.40
68480;DHT22;55469;48.934;12.050;2023-06-10T06:38:57;20.90;63.40
68480;DHT22;55469;48.934;12.050;2023-06-10T06:41:26;20.90;63.30
68480;DHT22;55469;48.934;12.050;2023-06-10T06:43:53;20.90;63.50
68480;DHT22;55469;48.934;12.050;2023-06-10T06:46:19;20.90;63.60
68480;DHT22;55469;48.934;12.050;2023-06-10T06:48:45;21.00;63.60
68480;DHT22;55469;48.934;12.050;2023-06-10T06:51:10;20.90;63.30
68480;DHT22;55469;48.934;12.050;2023-06-10T06:53:36;21.00;63.70
68480;DHT22;55469;48.934;12.050;2023-06-10T06:56:02;21.00;63.80
68480;DHT22;55469;48.934;12.050;2023-06-10T06:58:28;21.00;63.70
68480;DHT22;55469;48.934;12.050;2023-06-10T07:00:54;21.00;63.60
68480;DHT22;55469;48.934;12.050;2023-06-10T07:03:20;21.00;63.60
68480;DHT22;55469;48.934;12.050;2023-06-10T07:05:45;21.10;63.60
68480;DHT22;55469;48.934;12.050;2023-06-10T07:08:11;21.00;63.60
68480;DHT22;55469;48.934;12.050;2023-06-10T07:10:37;21.00;63.60
68480;DHT22;55469;48.934;12.050;2023-06-10T07:13:03;21.10;63.60
68480;DHT22;55469;48.934;12.050;2023-06-10T07:15:29;21.10;63.90
68480;DHT22;55469;48.934;12.050;2023-06-10T07:17:55;21.10;63.70
68480;DHT22;55469;48.934;12.050;2023-06-10T07:20:21;21.10;63.80
68480;DHT22;55469;48.934;12.050;2023-06-10T07:22:47;21.20;63.40
68480;DHT22;55469;48.934;12.050;2023-06-10T07:25:13;21.10;63.20
68480;DHT22;55469;48.934;12.050;2023-06-10T07:27:38;21.20;62.90
68480;DHT22;55469;48.934;12.050;2023-06-10T07:30:05;21.20;62.60
68480;DHT22;55469;48.934;12.050;2023-06-10T07:32:33;21.20;62.80
68480;DHT22;55469;48.934;12.050;2023-06-10T07:34:59;21.20;62.40
68480;DHT22;55469;48.934;12.050;2023-06-10T07:37:25;21.20;62.00
68480;DHT22;55469;48.934;12.050;2023-06-10T07:39:50;21.30;62.30
68480;DHT22;55469;48.934;12.050;2023-06-10T07:42:16;21.30;61.80
68480;DHT22;55469;48.934;12.050;2023-06-10T07:44:42;21.30;61.70
68480;DHT22;55469;48.934;12.050;2023-06-10T07:47:08;21.40;61.40
68480;DHT22;55469;48.934;12.050;2023-06-10T07:49:33;21.50;61.60
68480;DHT22;55469;48.934;12.050;2023-06-10T07:51:59;21.50;61.30
68480;DHT22;55469;48.934;12.050;2023-06-10T07:54:25;21.60;61.40
68480;DHT22;55469;48.934;12.050;2023-06-10T07:56:50;21.70;61.60
68480;DHT22;55469;48.934;12.050;2023-06-10T07:59:18;21.80;61.10
68480;DHT22;55469;48.934;12.050;2023-06-10T08:01:44;21.80;61.60
68480;DHT22;55469;48.934;12.050;2023-06-10T08:04:09;21.80;61.90
68480;DHT22;55469;48.934;12.050;2023-06-10T08:06:35;21.90;61.60
68480;DHT22;55469;48.934;12.050;2023-06-10T08:09:02;21.90;61.30
68480;DHT22;55469;48.934;12.050;2023-06-10T08:11:29;21.90;61.40
68480;DHT22;55469;48.934;12.050;2023-06-10T08:13:55;22.00;61.60
68480;DHT22;55469;48.934;12.050;2023-06-10T08:16:21;22.00;61.40
68480;DHT22;55469;48.934;12.050;2023-06-10T08:18:47;22.10;61.20
68480;DHT22;55469;48.934;12.050;2023-06-10T08:21:12;22.10;61.40
68480;DHT22;55469;48.934;12.050;2023-06-10T08:23:38;22.10;60.90
68480;DHT22;55469;48.934;12.050;2023-06-10T08:26:04;22.10;61.40
68480;DHT22;55469;48.934;12.050;2023-06-10T08:28:30;22.20;61.20
68480;DHT22;55469;48.934;12.050;2023-06-10T08:30:55;22.20;60.60
68480;DHT22;55469;48.934;12.050;2023-06-10T08:33:21;22.30;60.40
68480;DHT22;55469;48.934;12.050;2023-06-10T08:35:47;22.30;60.60
68480;DHT22;55469;48.934;12.050;2023-06-10T08:38:13;22.30;60.70
68480;DHT22;55469;48.934;12.050;2023-06-10T08:40:38;22.30;60.80
68480;DHT22;55469;48.934;12.050;2023-06-10T08:43:15;22.30;60.50
68480;DHT22;55469;48.934;12.050;2023-06-10T08:45:45;22.30;60.40
68480;DHT22;55469;48.934;12.050;2023-06-10T08:48:14;22.20;60.80
68480;DHT22;55469;48.934;12.050;2023-06-10T08:50:42;22.30;61.20
68480;DHT22;55469;48.934;12.050;2023-06-10T08:53:18;22.20;61.80
68480;DHT22;55469;48.934;12.050;2023-06-10T08:55:49;22.10;62.30
68480;DHT22;55469;48.934;12.050;2023-06-10T08:58:21;22.20;62.60
68480;DHT22;55469;48.934;12.050;2023-06-10T09:00:47;22.30;62.30
68480;DHT22;55469;48.934;12.050;2023-06-10T09:03:13;22.20;62.00
68480;DHT22;55469;48.934;12.050;2023-06-10T09:05:39;22.20;61.80
68480;DHT22;55469;48.934;12.050;2023-06-10T09:08:06;22.30;61.60
68480;DHT22;55469;48.934;12.050;2023-06-10T09:10:33;22.40;61.20
68480;DHT22;55469;48.934;12.050;2023-06-10T09:12:59;22.40;61.00
68480;DHT22;55469;48.934;12.050;2023-06-10T09:15:25;22.50;60.80
68480;DHT22;55469;48.934;12.050;2023-06-10T09:17:51;22.50;60.40
68480;DHT22;55469;48.934;12.050;2023-06-10T09:20:17;22.60;60.50
68480;DHT22;55469;48.934;12.050;2023-06-10T09:22:44;22.60;60.30
68480;DHT22;55469;48.934;12.050;2023-06-10T09:25:13;22.60;60.40
68480;DHT22;55469;48.934;12.050;2023-06-10T09:27:50;22.70;60.80
68480;DHT22;55469;48.934;12.050;2023-06-10T09:30:30;22.70;60.50
68480;DHT22;55469;48.934;12.050;2023-06-10T09:32:59;22.70;60.40
68480;DHT22;55469;48.934;12.050;2023-06-10T09:35:28;22.70;59.90
68480;DHT22;55469;48.934;12.050;2023-06-10T09:37:57;22.80;59.90
68480;DHT22;55469;48.934;12.050;2023-06-10T09:40:24;22.80;59.70
68480;DHT22;55469;48.934;12.050;2023-06-10T09:42:55;22.80;59.40
68480;DHT22;55469;48.934;12.050;2023-06-10T09:45:22;22.90;59.30
68480;DHT22;55469;48.934;12.050;2023-06-10T09:47:52;22.90;58.90
68480;DHT22;55469;48.934;12.050;2023-06-10T09:50:18;22.90;58.90
68480;DHT22;55469;48.934;12.050;2023-06-10T09:52:46;22.90;59.10
68480;DHT22;55469;48.934;12.050;2023-06-10T09:55:13;22.90;58.90
68480;DHT22;55469;48.934;12.050;2023-06-10T09:57:39;23.00;59.00
68480;DHT22;55469;48.934;12.050;2023-06-10T10:00:08;23.00;59.30
68480;DHT22;55469;48.934;12.050;2023-06-10T10:02:52;23.10;59.10
68480;DHT22;55469;48.934;12.050;2023-06-10T10:05:20;23.20;58.60
68480;DHT22;55469;48.934;12.050;2023-06-10T10:07:47;23.20;58.60
68480;DHT22;55469;48.934;12.050;2023-06-10T10:10:15;23.20;58.60
68480;DHT22;55469;48.934;12.050;2023-06-10T10:12:48;23.20;58.60
68480;DHT22;55469;48.934;12.050;2023-06-10T10:15:17;23.30;58.70
68480;DHT22;55469;48.934;12.050;2023-06-10T10:17:56;23.30;58.40
68480;DHT22;55469;48.934;12.050;2023-06-10T10:20:29;23.40;58.70
68480;DHT22;55469;48.934;12.050;2023-06-10T10:22:57;23.30;58.50
68480;DHT22;55469;48.934;12.050;2023-06-10T10:25:40;23.30;58.30
68480;DHT22;55469;48.934;12.050;2023-06-10T10:28:29;23.30;57.80
68480;DHT22;55469;48.934;12.050;2023-06-10T10:31:08;23.20;57.70
68480;DHT22;55469;48.934;12.050;2023-06-10T10:33:58;23.20;58.30
68480;DHT22;55469;48.934;12.050;2023-06-10T10:36:25;23.10;57.10
68480;DHT22;55469;48.934;12.050;2023-06-10T10:38:51;23.10;56.60
68480;DHT22;55469;48.934;12.050;2023-06-10T10:41:18;23.10;56.80
68480;DHT22;55469;48.934;12.050;2023-06-10T10:43:47;23.20;57.10
68480;DHT22;55469;48.934;12.050;2023-06-10T10:46:15;23.10;57.20
68480;DHT22;55469;48.934;12.050;2023-06-10T10:48:43;23.10;58.60
68480;DHT22;55469;48.934;12.050;2023-06-10T10:51:09;23.10;58.40
68480;DHT22;55469;48.934;12.050;2023-06-10T10:53:39;23.20;57.90
68480;DHT22;55469;48.934;12.050;2023-06-10T10:56:27;23.40;57.70
68480;DHT22;55469;48.934;12.050;2023-06-10T10:59:06;23.50;56.60
68480;DHT22;55469;48.934;12.050;2023-06-10T11:01:42;23.50;56.90
68480;DHT22;55469;48.934;12.050;2023-06-10T11:04:11;23.70;58.80
68480;DHT22;55469;48.934;12.050;2023-06-10T11:06:55;23.70;58.20
68480;DHT22;55469;48.934;12.050;2023-06-10T11:09:28;23.70;57.90
68480;DHT22;55469;48.934;12.050;2023-06-10T11:11:57;23.90;58.30
68480;DHT22;55469;48.934;12.050;2023-06-10T11:14:28;24.00;57.30
68480;DHT22;55469;48.934;12.050;2023-06-10T11:16:59;24.10;55.70
68480;DHT22;55469;48.934;12.050;2023-06-10T11:19:32;24.10;56.30
68480;DHT22;55469;48.934;12.050;2023-06-10T11:22:07;24.20;54.60
68480;DHT22;55469;48.934;12.050;2023-06-10T11:24:33;24.20;54.20
68480;DHT22;55469;48.934;12.050;2023-06-10T11:27:15;24.10;54.70
68480;DHT22;55469;48.934;12.050;2023-06-10T11:32:33;24.20;53.90
68480;DHT22;55469;48.934;12.050;2023-06-10T11:35:03;24.20;53.30
68480;DHT22;55469;48.934;12.050;2023-06-10T11:37:29;24.40;53.60
68480;DHT22;55469;48.934;12.050;2023-06-10T11:39:55;24.40;52.80
68480;DHT22;55469;48.934;12.050;2023-06-10T11:42:22;24.50;54.30
68480;DHT22;55469;48.934;12.050;2023-06-10T11:44:52;24.70;54.10
68480;DHT22;55469;48.934;12.050;2023-06-10T11:47:19;24.80;54.00
68480;DHT22;55469;48.934;12.050;2023-06-10T11:49:46;24.90;53.00
68480;DHT22;55469;48.934;12.050;2023-06-10T11:52:15;24.80;53.20
68480;DHT22;55469;48.934;12.050;2023-06-10T11:54:41;24.70;52.90
68480;DHT22;55469;48.934;12.050;2023-06-10T11:57:06;24.70;53.30
68480;DHT22;55469;48.934;12.050;2023-06-10T11:59:34;24.70;53.50
68480;DHT22;55469;48.934;12.050;2023-06-10T12:01:59;24.60;53.70
68480;DHT22;55469;48.934;12.050;2023-06-10T12:04:25;24.60;54.80
68480;DHT22;55469;48.934;12.050;2023-06-10T12:06:54;24.70;55.20
68480;DHT22;55469;48.934;12.050;2023-06-10T12:09:25;24.70;55.00
68480;DHT22;55469;48.934;12.050;2023-06-10T12:12:12;24.80;55.10
68480;DHT22;55469;48.934;12.050;2023-06-10T12:20:03;24.50;55.60
68480;DHT22;55469;48.934;12.050;2023-06-10T12:22:44;24.50;55.70
68480;DHT22;55469;48.934;12.050;2023-06-10T12:25:10;24.60;56.00
68480;DHT22;55469;48.934;12.050;2023-06-10T12:27:39;24.50;56.40
68480;DHT22;55469;48.934;12.050;2023-06-10T12:30:06;24.50;56.30
68480;DHT22;55469;48.934;12.050;2023-06-10T12:32:43;24.40;56.10
68480;DHT22;55469;48.934;12.050;2023-06-10T12:35:12;24.40;56.50
68480;DHT22;55469;48.934;12.050;2023-06-10T12:37:41;24.40;55.90
68480;DHT22;55469;48.934;12.050;2023-06-10T12:40:07;24.60;56.80
68480;DHT22;55469;48.934;12.050;2023-06-10T12:42:35;24.70;55.60
68480;DHT22;55469;48.934;12.050;2023-06-10T12:45:03;24.80;55.60
68480;DHT22;55469;48.934;12.050;2023-06-10T12:47:32;24.90;54.80
68480;DHT22;55469;48.934;12.050;2023-06-10T12:50:00;25.00;53.50
68480;DHT22;55469;48.934;12.050;2023-06-10T12:52:27;25.00;53.70
68480;DHT22;55469;48.934;12.050;2023-06-10T12:54:54;25.00;54.40
68480;DHT22;55469;48.934;12.050;2023-06-10T12:57:20;25.20;53.60
68480;DHT22;55469;48.934;12.050;2023-06-10T12:59:47;25.10;51.40
68480;DHT22;55469;48.934;12.050;2023-06-10T13:02:20;25.10;50.70
68480;DHT22;55469;48.934;12.050;2023-06-10T13:04:49;25.20;50.80
68480;DHT22;55469;48.934;12.050;2023-06-10T13:07:15;25.30;51.30
68480;DHT22;55469;48.934;12.050;2023-06-10T13:09:42;25.40;50.30
68480;DHT22;55469;48.934;12.050;2023-06-10T13:12:08;25.40;50.30
68480;DHT22;55469;48.934;12.050;2023-06-10T13:14:35;25.40;49.50
68480;DHT22;55469;48.934;12.050;2023-06-10T13:17:04;25.40;49.60
68480;DHT22;55469;48.934;12.050;2023-06-10T13:19:35;25.40;49.70
68480;DHT22;55469;48.934;12.050;2023-06-10T13:22:00;25.50;49.90
68480;DHT22;55469;48.934;12.050;2023-06-10T13:24:26;25.60;50.30
68480;DHT22;55469;48.934;12.050;2023-06-10T13:26:52;25.70;51.20
68480;DHT22;55469;48.934;12.050;2023-06-10T13:29:20;25.80;50.30
68480;DHT22;55469;48.934;12.050;2023-06-10T13:31:45;25.90;50.60
68480;DHT22;55469;48.934;12.050;2023-06-10T13:34:11;26.10;50.60
68480;DHT22;55469;48.934;12.050;2023-06-10T13:36:37;26.20;49.90
68480;DHT22;55469;48.934;12.050;2023-06-10T13:39:03;26.10;48.80
68480;DHT22;55469;48.934;12.050;2023-06-10T13:41:28;26.10;48.90
68480;DHT22;55469;48.934;12.050;2023-06-10T13:43:54;26.10;48.80
68480;DHT22;55469;48.934;12.050;2023-06-10T13:46:21;26.20;48.80
68480;DHT22;55469;48.934;12.050;2023-06-10T13:48:47;26.30;48.30
68480;DHT22;55469;48.934;12.050;2023-06-10T13:51:13;26.30;49.80
68480;DHT22;55469;48.934;12.050;2023-06-10T13:53:46;26.30;50.20
68480;DHT22;55469;48.934;12.050;2023-06-10T13:56:12;26.30;50.80
68480;DHT22;55469;48.934;12.050;2023-06-10T13:58:39;26.10;53.10
68480;DHT22;55469;48.934;12.050;2023-06-10T14:01:06;26.10;54.30
68480;DHT22;55469;48.934;12.050;2023-06-10T14:03:32;25.90;55.20
68480;DHT22;55469;48.934;12.050;2023-06-10T14:06:04;25.80;57.10
68480;DHT22;55469;48.934;12.050;2023-06-10T14:08:30;25.70;56.40
68480;DHT22;55469;48.934;12.050;2023-06-10T14:10:55;25.80;56.50
68480;DHT22;55469;48.934;12.050;2023-06-10T14:13:30;25.70;55.90
68480;DHT22;55469;48.934;12.050;2023-06-10T14:15:57;25.70;55.90
68480;DHT22;55469;48.934;12.050;2023-06-10T14:18:28;25.70;55.40
68480;DHT22;55469;48.934;12.050;2023-06-10T14:20:53;25.80;55.40
68480;DHT22;55469;48.934;12.050;2023-06-10T14:23:19;26.00;54.80
68480;DHT22;55469;48.934;12.050;2023-06-10T14:25:45;26.00;56.30
68480;DHT22;55469;48.934;12.050;2023-06-10T14:28:10;26.10;54.40
68480;DHT22;55469;48.934;12.050;2023-06-10T14:30:36;26.40;54.10
68480;DHT22;55469;48.934;12.050;2023-06-10T14:33:02;26.40;53.70
68480;DHT22;55469;48.934;12.050;2023-06-10T14:36:01;26.40;53.60
68480;DHT22;55469;48.934;12.050;2023-06-10T14:38:26;26.30;52.90
68480;DHT22;55469;48.934;12.050;2023-06-10T14:40:52;26.30;56.20
68480;DHT22;55469;48.934;12.050;2023-06-10T14:43:18;26.10;59.70
68480;DHT22;55469;48.934;12.050;2023-06-10T14:45:44;26.00;60.00
68480;DHT22;55469;48.934;12.050;2023-06-10T14:48:32;25.70;63.10
68480;DHT22;55469;48.934;12.050;2023-06-10T14:51:04;25.40;63.70
68480;DHT22;55469;48.934;12.050;2023-06-10T14:53:30;25.50;65.50
68480;DHT22;55469;48.934;12.050;2023-06-10T14:55:56;25.20;65.50
68480;DHT22;55469;48.934;12.050;2023-06-10T14:58:22;25.10;64.50
68480;DHT22;55469;48.934;12.050;2023-06-10T15:04:29;25.00;64.40
68480;DHT22;55469;48.934;12.050;2023-06-10T15:06:54;24.90;64.40
68480;DHT22;55469;48.934;12.050;2023-06-10T15:09:20;24.90;64.40
68480;DHT22;55469;48.934;12.050;2023-06-10T15:11:46;24.80;65.10
68480;DHT22;55469;48.934;12.050;2023-06-10T15:14:12;24.80;66.00
68480;DHT22;55469;48.934;12.050;2023-06-10T15:16:38;24.70;66.10
68480;DHT22;55469;48.934;12.050;2023-06-10T15:19:04;24.90;66.30
68480;DHT22;55469;48.934;12.050;2023-06-10T15:21:32;24.90;67.50
68480;DHT22;55469;48.934;12.050;2023-06-10T15:23:57;25.00;67.00
68480;DHT22;55469;48.934;12.050;2023-06-10T15:26:23;25.00;66.90
68480;DHT22;55469;48.934;12.050;2023-06-10T15:28:49;25.10;66.00
68480;DHT22;55469;48.934;12.050;2023-06-10T15:31:15;25.10;66.30
68480;DHT22;55469;48.934;12.050;2023-06-10T15:33:40;25.20;66.90